Time;durP1;ratioP1;P1;durP2;ratioP2;P2;SDS_P1;SDS_P2;PMS_P1;PMS_P2;Temp;Humidity;BMP_temperature;BMP_pressure;BME280_temperature;BME280_humidity;BME280_pressure;Samples;Min_cycle;Max_cycle;Signal;HPM_P1;HPM_P2
2021/12/13 00:00:46;;;;;;;34.08;9.98;;;;;;;7.55;100.00;19892.31;1704654;82;21802;-67
2021/12/13 00:03:27;;;;;;;24.98;8.35;;;;;;;7.55;100.00;20059.26;1692264;82;21640;-68
2021/12/13 00:06:06;;;;;;;23.90;7.92;;;;;;;7.55;100.00;20059.06;1711760;82;21421;-67
2021/12/13 00:08:35;;;;;;;20.40;6.97;;;;;;;7.55;100.00;19892.31;1698308;82;21694;-68
2021/12/13 00:11:14;;;;;;;27.40;8.88;;;;;;;7.55;100.00;19558.84;1706583;82;21017;-67
2021/12/13 00:13:53;;;;;;;28.15;7.90;;;;;;;7.55;100.00;19225.60;1675277;82;21817;-68
2021/12/13 00:16:35;;;;;;;27.50;8.08;;;;;;;7.58;100.00;18893.14;1701433;82;21088;-67
2021/12/13 00:19:15;;;;;;;23.98;7.80;;;;;;;7.58;100.00;18726.64;1704275;82;21079;-68
2021/12/13 00:21:49;;;;;;;25.37;7.75;;;;;;;7.60;100.00;18060.48;1708776;82;21128;-69
2021/12/13 00:24:29;;;;;;;23.75;7.42;;;;;;;7.62;100.00;17561.24;1708214;82;21733;-67
2021/12/13 00:27:17;;;;;;;24.95;7.92;;;;;;;7.64;100.00;17062.05;1706748;82;21508;-68
2021/12/13 00:30:12;;;;;;;22.22;7.90;;;;;;;7.65;100.00;16895.78;1715646;82;21034;-67
2021/12/13 00:33:01;;;;;;;23.38;7.17;;;;;;;7.64;100.00;16895.43;1705124;82;21095;-67
2021/12/13 00:35:45;;;;;;;31.48;9.35;;;;;;;7.65;100.00;16729.16;1675220;83;21495;-68
2021/12/13 00:38:12;;;;;;;35.03;8.17;;;;;;;7.65;100.00;16229.36;1688032;82;21126;-67
2021/12/13 00:40:58;;;;;;;26.50;8.10;;;;;;;7.67;100.00;15730.30;1706692;82;21369;-67
2021/12/13 00:43:30;;;;;;;21.07;6.95;;;;;;;7.69;100.00;15231.28;1687207;83;21086;-68
2021/12/13 00:46:01;;;;;;;27.20;7.15;;;;;;;7.70;100.00;15065.05;1701893;82;21285;-69
2021/12/13 00:48:30;;;;;;;26.97;7.92;;;;;;;7.71;100.00;14898.83;1713889;82;21111;-69
2021/12/13 00:51:08;;;;;;;34.90;7.00;;;;;;;7.70;100.00;15231.43;1673147;82;21403;-69
2021/12/13 00:53:38;;;;;;;26.02;7.42;;;;;;;7.70;100.00;15231.43;1686064;83;21596;-68
2021/12/13 00:56:44;;;;;;;21.93;7.58;;;;;;;7.71;100.00;15065.37;1710234;82;21115;-68
2021/12/13 00:59:29;;;;;;;21.68;6.78;;;;;;;7.70;100.00;14898.51;1705043;82;21123;-69
2021/12/13 01:02:12;;;;;;;22.35;7.35;;;;;;;7.69;100.00;14731.67;1700421;82;21024;-68
2021/12/13 01:04:56;;;;;;;25.12;7.47;;;;;;;7.70;100.00;14232.45;1708330;82;21131;-68
2021/12/13 01:07:55;;;;;;;16.10;5.20;;;;;;;7.68;100.00;13732.39;1707262;82;21198;-67
2021/12/13 01:10:54;;;;;;;23.98;7.45;;;;;;;7.67;100.00;13232.73;1709024;82;21036;-67
2021/12/13 01:13:26;;;;;;;31.62;7.65;;;;;;;7.68;100.00;12733.58;1700338;82;21075;-67
2021/12/13 01:16:12;;;;;;;29.00;8.25;;;;;;;7.65;100.00;12233.69;1702962;82;21569;-67
2021/12/13 01:19:24;;;;;;;26.60;7.62;;;;;;;7.65;100.00;11900.93;1682727;82;21089;-67
2021/12/13 01:21:40;;;;;;;26.02;6.62;;;;;;;7.65;100.00;11401.73;1701539;82;21220;-69
2021/12/13 01:24:15;;;;;;;25.25;6.85;;;;;;;7.64;100.00;10736.31;1702053;82;21100;-67
2021/12/13 01:26:46;;;;;;;19.00;6.45;;;;;;;7.65;100.00;10237.66;1705712;82;21064;-68
2021/12/13 01:29:20;;;;;;;31.90;8.05;;;;;;;7.67;100.00;9406.79;1709787;82;20988;-66
2021/12/13 01:31:53;;;;;;;21.33;7.70;;;;;;;7.68;100.00;8908.19;1701263;82;26857;-67
2021/12/13 01:34:22;;;;;;;23.05;7.50;;;;;;;7.69;100.00;8409.76;1708557;82;21551;-67
2021/12/13 01:37:01;;;;;;;25.95;7.12;;;;;;;7.70;100.00;7911.49;1706290;82;21068;-67
2021/12/13 01:39:24;;;;;;;24.55;7.45;;;;;;;7.71;100.00;7745.41;1697507;82;21131;-67
2021/12/13 01:41:58;;;;;;;25.17;6.87;;;;;;;7.71;100.00;7080.87;1701742;82;21123;-67
2021/12/13 01:44:29;;;;;;;19.65;6.92;;;;;;;7.72;100.00;7080.96;1700430;83;21388;-67
2021/12/13 01:47:12;;;;;;;28.15;8.45;;;;;;;7.76;100.00;6583.20;1681680;84;21183;-67
2021/12/13 01:49:46;;;;;;;24.85;7.03;;;;;;;7.76;100.00;6084.85;1684917;83;20968;-67
2021/12/13 01:52:20;;;;;;;27.52;7.28;;;;;;;7.77;100.00;5752.82;1718893;82;21353;-67
2021/12/13 01:54:47;;;;;;;21.55;7.03;;;;;;;7.79;100.00;5587.06;1706289;82;21048;-67
2021/12/13 01:59:55;;;;;;;31.33;7.25;;;;;;;7.81;100.00;4923.16;1700519;82;21167;-66
2021/12/13 02:02:37;;;;;;;24.37;6.92;;;;;;;7.81;100.00;4757.04;1711865;82;21060;-68
2021/12/13 02:05:11;;;;;;;28.55;7.85;;;;;;;7.81;100.00;4590.99;1705575;82;21470;-68
2021/12/13 02:07:59;;;;;;;25.77;8.38;;;;;;;7.81;100.00;4424.95;1709842;82;21061;-69
2021/12/13 02:10:35;;;;;;;22.50;6.62;;;;;;;7.80;100.00;4258.78;1699755;82;21040;-68
2021/12/13 02:13:10;;;;;;;21.60;7.60;;;;;;;7.78;100.00;4258.50;1679844;84;21872;-68
2021/12/13 02:18:29;;;;;;;26.97;8.30;;;;;;;7.75;100.00;3096.29;1701517;82;21146;-70
2021/12/13 02:21:11;;;;;;;21.30;7.92;;;;;;;7.74;100.00;2266.59;1705104;82;21696;-70
2021/12/13 02:23:41;;;;;;;20.52;8.23;;;;;;;7.74;100.00;1768.90;1715216;82;21069;-69
2021/12/13 02:26:09;;;;;;;19.20;7.10;;;;;;;7.74;100.00;939.59;1719453;82;21130;-69
2021/12/13 02:28:39;;;;;;;19.35;7.17;;;;;;;7.73;100.00;-552.69;1714597;82;21007;-69
2021/12/13 02:31:13;;;;;;;21.17;7.47;;;;;;;7.74;100.00;-1547.07;1711862;82;21048;-68
2021/12/13 02:33:47;;;;;;;;;;;;;;;7.75;100.00;-2044.16;1750087;80;21083;-70
2021/12/13 02:36:23;;;;;;;28.15;9.00;;;;;;;7.76;100.00;-2872.50;1739497;80;20220;-68
2021/12/13 02:38:53;;;;;;;16.90;7.28;;;;;;;7.77;100.00;-3369.40;1754621;80;21099;-66
2021/12/13 02:41:23;;;;;;;24.45;7.35;;;;;;;7.78;100.00;-3866.24;1749387;80;21068;-68
2021/12/13 02:43:53;;;;;;;26.27;9.55;;;;;;;7.81;100.00;-4528.61;1744292;80;21045;-67
2021/12/13 02:46:19;;;;;;;24.18;7.25;;;;;;;7.84;100.00;-5190.91;1753741;80;21116;-67
2021/12/13 02:48:54;;;;;;;19.40;6.90;;;;;;;7.88;100.00;-5853.17;1749496;80;21517;-70
2021/12/13 02:51:42;;;;;;;23.92;8.10;;;;;;;7.90;100.00;-6349.80;1752750;80;21141;-70
2021/12/13 02:54:16;;;;;;;21.80;8.15;;;;;;;7.91;100.00;-6846.34;1744737;80;21064;-70
2021/12/13 02:56:48;;;;;;;22.82;8.53;;;;;;;7.94;100.00;-7342.92;1749112;80;21103;-70
2021/12/13 02:59:15;;;;;;;24.55;8.80;;;;;;;7.96;100.00;-7839.42;1750965;80;21565;-68
2021/12/13 03:01:50;;;;;;;22.62;8.53;;;;;;;7.97;100.00;-8335.81;1749060;80;21099;-68
2021/12/13 03:04:20;;;;;;;26.15;8.58;;;;;;;7.97;100.00;-8666.66;1742883;80;21751;-67
2021/12/13 03:07:11;;;;;;;20.92;7.67;;;;;;;7.98;100.00;-9162.94;1748883;80;21057;-66
2021/12/13 03:09:39;;;;;;;24.92;8.10;;;;;;;8.00;100.00;-9328.50;1754569;80;21100;-68
2021/12/13 03:12:09;;;;;;;23.95;8.43;;;;;;;8.02;100.00;-9659.43;1751438;80;21147;-68
2021/12/13 03:14:45;;;;;;;18.73;6.80;;;;;;;8.02;100.00;-9990.17;1740519;80;22083;-68
2021/12/13 03:17:22;;;;;;;16.80;7.22;;;;;;;8.03;100.00;-10155.62;1750430;80;26653;-68
2021/12/13 03:20:19;;;;;;;20.90;7.50;;;;;;;8.04;100.00;-10321.03;1716435;80;21041;-69
2021/12/13 03:23:20;;;;;;;18.02;7.45;;;;;;;8.07;100.00;-10651.97;1745285;80;21009;-68
2021/12/13 03:26:10;;;;;;;22.25;8.05;;;;;;;8.09;100.00;-10982.85;1749571;80;21692;-70
2021/12/13 03:29:03;;;;;;;21.17;7.12;;;;;;;8.11;100.00;-11313.72;1748449;80;21100;-69
2021/12/13 03:31:40;;;;;;;17.27;7.30;;;;;;;8.13;100.00;-11644.57;1745917;80;21126;-69
2021/12/13 03:34:18;;;;;;;21.02;6.53;;;;;;;8.15;100.00;-11975.42;1745758;80;21123;-69
2021/12/13 03:37:01;;;;;;;17.32;7.75;;;;;;;8.18;100.00;-12141.10;1745000;80;21505;-69
2021/12/13 03:39:36;;;;;;;20.35;7.17;;;;;;;8.21;100.00;-12472.07;1742571;80;21507;-68
2021/12/13 03:42:09;;;;;;;;;;;;;;;8.22;100.00;-12802.76;1746402;80;21116;-68
2021/12/13 03:44:46;;;;;;;21.70;7.95;;;;;;;8.24;100.00;-12968.31;1751396;80;21059;-68
2021/12/13 03:47:27;;;;;;;23.47;8.50;;;;;;;8.25;100.00;-13133.65;1751230;80;21044;-68
2021/12/13 03:49:59;;;;;;;25.32;8.13;;;;;;;8.25;100.00;-13298.98;1749007;80;21121;-69
2021/12/13 03:52:29;;;;;;;19.92;7.85;;;;;;;8.26;100.00;-13464.38;1749280;80;21349;-69
2021/12/13 03:54:59;;;;;;;23.55;7.60;;;;;;;8.28;100.00;-13629.93;1740103;80;21127;-68
2021/12/13 03:57:26;;;;;;;18.65;7.00;;;;;;;8.29;100.00;-13630.08;1755802;80;21807;-69
2021/12/13 03:59:53;;;;;;;15.40;6.72;;;;;;;8.30;100.00;-13630.23;1690920;83;21060;-69
2021/12/13 04:02:30;;;;;;;17.15;6.72;;;;;;;8.31;100.00;-13630.39;1689290;83;21250;-68
2021/12/13 04:05:02;;;;;;;22.00;7.22;;;;;;;8.31;100.00;-13630.31;1694756;82;21117;-69
2021/12/13 04:07:40;;;;;;;16.17;6.70;;;;;;;8.33;100.00;-13795.87;1694783;82;22209;-68
2021/12/13 04:10:22;;;;;;;19.50;7.28;;;;;;;8.34;100.00;-13961.20;1743529;80;21103;-68
2021/12/13 04:12:53;;;;;;;18.37;6.22;;;;;;;8.34;100.00;-14126.43;1747886;80;21068;-69
2021/12/13 04:15:30;;;;;;;18.50;6.17;;;;;;;8.35;100.00;-14126.59;1744420;80;21087;-68
2021/12/13 04:18:12;;;;;;;20.10;7.22;;;;;;;8.37;100.00;-14457.38;1750430;80;21091;-69
2021/12/13 04:20:36;;;;;;;24.60;7.35;;;;;;;8.38;100.00;-14622.77;1754508;80;21109;-69
2021/12/13 04:23:14;;;;;;;16.52;7.00;;;;;;;8.41;100.00;-14788.50;1741101;80;21139;-68
2021/12/13 04:25:43;;;;;;;16.97;6.50;;;;;;;8.42;100.00;-14953.89;1751866;80;21099;-70
2021/12/13 04:28:19;;;;;;;15.15;5.80;;;;;;;8.44;100.00;-15119.45;1751215;80;21031;-70
2021/12/13 04:30:51;;;;;;;21.57;6.12;;;;;;;8.47;100.00;-15285.20;1752886;80;21451;-68
2021/12/13 04:33:29;;;;;;;19.80;6.75;;;;;;;8.48;100.00;-15450.50;1741302;80;21088;-68
2021/12/13 04:36:03;;;;;;;21.35;6.42;;;;;;;8.49;100.00;-15450.77;1748392;80;21831;-69
2021/12/13 04:38:34;;;;;;;;;;;;;;;8.52;100.00;-15781.64;1751443;80;21008;-68
2021/12/13 04:41:00;;;;;;;20.23;6.30;;;;;;;8.52;100.00;-15781.74;1752952;80;20221;-69
2021/12/13 04:43:28;;;;;;;19.77;5.72;;;;;;;8.53;100.00;-15947.03;1721605;80;21406;-68
2021/12/13 04:45:58;;;;;;;21.57;6.78;;;;;;;8.55;100.00;-16112.70;1751357;80;21033;-69
2021/12/13 04:48:31;;;;;;;18.32;6.28;;;;;;;8.57;100.00;-16278.28;1743838;80;21777;-70
2021/12/13 04:51:10;;;;;;;19.10;7.15;;;;;;;8.59;100.00;-16443.86;1747159;80;21088;-69
2021/12/13 04:53:44;;;;;;;19.48;6.42;;;;;;;8.63;100.00;-16609.64;1744278;80;21428;-66
2021/12/13 04:56:15;;;;;;;16.70;7.20;;;;;;;8.66;100.00;-16775.44;1752102;80;22246;-65
2021/12/13 04:58:45;;;;;;;19.02;6.65;;;;;;;8.66;100.00;-16775.54;1745032;80;21671;-65
2021/12/13 05:01:13;;;;;;;19.07;6.90;;;;;;;8.65;100.00;-16775.23;1753390;80;21063;-65
2021/12/13 05:03:50;;;;;;;16.87;6.65;;;;;;;8.64;100.00;-16609.95;1754871;80;21064;-66
2021/12/13 05:06:22;;;;;;;20.55;7.10;;;;;;;8.64;100.00;-16444.66;1757627;80;21094;-65
2021/12/13 05:08:54;;;;;;;21.05;6.40;;;;;;;8.63;100.00;-16444.46;1749191;80;21084;-66
2021/12/13 05:11:20;;;;;;;16.32;6.00;;;;;;;8.65;100.00;-16610.05;1758296;80;21040;-66
2021/12/13 05:13:54;;;;;;;19.55;6.25;;;;;;;8.64;100.00;-16609.85;1742438;80;21107;-66
2021/12/13 05:16:45;;;;;;;15.80;6.15;;;;;;;8.62;100.00;-16609.44;1741999;80;21351;-66
2021/12/13 05:19:14;;;;;;;17.45;6.55;;;;;;;8.60;100.00;-16444.06;1721764;81;21055;-66
2021/12/13 05:21:50;;;;;;;22.87;6.95;;;;;;;8.59;100.00;-16443.76;1748900;80;21568;-66
2021/12/13 05:24:20;;;;;;;16.82;6.25;;;;;;;8.59;100.00;-16609.04;1749280;80;21038;-65
2021/12/13 05:27:04;;;;;;;20.35;7.03;;;;;;;8.59;100.00;-16609.04;1750669;80;21530;-66
2021/12/13 05:29:47;;;;;;;25.40;7.12;;;;;;;8.59;100.00;-16774.21;1752986;80;21074;-66
2021/12/13 05:32:25;;;;;;;22.77;7.70;;;;;;;8.58;100.00;-16773.90;1745001;80;21064;-66
2021/12/13 05:35:01;;;;;;;18.73;6.85;;;;;;;8.57;100.00;-16773.80;1745875;80;21036;-66
2021/12/13 05:37:43;;;;;;;29.98;9.28;;;;;;;8.54;100.00;-16608.03;1750818;80;21099;-67
2021/12/13 05:40:27;;;;;;;21.62;7.42;;;;;;;8.52;100.00;-16607.62;1741088;80;21043;-66
2021/12/13 05:42:57;;;;;;;20.50;8.43;;;;;;;8.52;100.00;-16442.36;1746407;80;21072;-66
2021/12/13 05:45:37;;;;;;;25.20;8.08;;;;;;;8.52;100.00;-16607.62;1744058;80;21515;-67
2021/12/13 05:48:13;;;;;;;19.17;6.58;;;;;;;8.54;100.00;-16938.33;1704203;80;21041;-66
2021/12/13 05:50:51;;;;;;;19.55;6.25;;;;;;;8.58;100.00;-17104.31;1746965;80;21588;-67
2021/12/13 05:53:22;;;;;;;21.52;7.78;;;;;;;8.60;100.00;-17269.77;1743332;80;22372;-66
2021/12/13 05:56:06;;;;;;;19.75;6.70;;;;;;;8.63;100.00;-17600.59;1739565;80;21469;-66
2021/12/13 05:58:57;;;;;;;20.27;6.65;;;;;;;8.64;100.00;-17600.80;1746302;80;21051;-66
2021/12/13 06:01:32;;;;;;;17.85;6.25;;;;;;;8.65;100.00;-17601.02;1743937;80;21779;-66
2021/12/13 06:04:11;;;;;;;;;;;;;;;8.65;100.00;-17766.16;1739718;80;21052;-66
2021/12/13 06:06:48;;;;;;;19.40;6.12;;;;;;;8.66;100.00;-17766.38;1743731;80;21133;-67
2021/12/13 06:09:53;;;;;;;16.12;6.83;;;;;;;8.67;100.00;-17766.60;1749114;80;21456;-66
2021/12/13 06:12:40;;;;;;;14.78;4.80;;;;;;;8.66;100.00;-17766.38;1746544;80;21107;-66
2021/12/13 06:15:24;;;;;;;15.90;5.83;;;;;;;8.67;100.00;-17931.84;1738063;80;21036;-66
2021/12/13 06:18:06;;;;;;;17.32;5.50;;;;;;;8.67;100.00;-17931.73;1748416;80;21100;-66
2021/12/13 06:20:57;;;;;;;17.57;5.75;;;;;;;8.66;100.00;-17931.62;1756314;80;21116;-67
2021/12/13 06:23:27;;;;;;;17.42;6.15;;;;;;;8.67;100.00;-17931.73;1740296;80;21047;-66
2021/12/13 06:26:01;;;;;;;23.38;7.72;;;;;;;8.67;100.00;-17931.73;1743426;80;21475;-70
2021/12/13 06:28:35;;;;;;;17.37;5.60;;;;;;;8.69;100.00;-18097.30;1745429;80;21087;-72
2021/12/13 06:31:12;;;;;;;17.55;5.72;;;;;;;8.67;100.00;-18096.96;1743118;80;21081;-70
2021/12/13 06:33:59;;;;;;;15.28;5.45;;;;;;;8.67;100.00;-17931.73;1748160;80;21786;-69
2021/12/13 06:36:30;;;;;;;15.45;5.45;;;;;;;8.65;100.00;-17931.28;1750356;80;21525;-70
2021/12/13 06:39:07;;;;;;;18.82;6.80;;;;;;;8.63;100.00;-17765.82;1744131;80;21083;-70
2021/12/13 06:41:41;;;;;;;25.05;7.92;;;;;;;8.60;100.00;-17765.27;1749819;80;21060;-70
2021/12/13 06:44:29;;;;;;;17.35;6.05;;;;;;;8.59;100.00;-17764.94;1746196;80;21498;-70
2021/12/13 06:47:06;;;;;;;17.62;6.60;;;;;;;8.59;100.00;-17765.05;1752199;80;21104;-70
2021/12/13 06:49:41;;;;;;;25.68;7.50;;;;;;;8.59;100.00;-17930.16;1745571;80;21103;-70
2021/12/13 06:52:13;;;;;;;20.02;6.47;;;;;;;8.59;100.00;-17930.05;1743758;80;21071;-70
2021/12/13 06:54:58;;;;;;;19.55;7.42;;;;;;;8.59;100.00;-18095.15;1744521;80;21095;-69
2021/12/13 06:57:35;;;;;;;17.05;6.70;;;;;;;8.60;100.00;-18260.47;1746067;80;21486;-69
2021/12/13 07:00:23;;;;;;;23.27;6.60;;;;;;;8.60;100.00;-18425.68;1743006;80;21591;-70
2021/12/13 07:02:54;;;;;;;22.32;6.72;;;;;;;8.63;100.00;-18591.22;1744628;80;21295;-69
2021/12/13 07:05:37;;;;;;;20.55;6.35;;;;;;;8.65;100.00;-18756.78;1743779;80;32441;-69
2021/12/13 07:08:24;;;;;;;26.02;7.33;;;;;;;8.68;100.00;-18922.57;1713457;80;21114;-69
2021/12/13 07:10:59;;;;;;;17.50;7.22;;;;;;;8.72;100.00;-19253.69;1746925;80;21040;-67
2021/12/13 07:13:37;;;;;;;24.32;7.25;;;;;;;8.77;100.00;-19420.00;1739647;80;21211;-66
2021/12/13 07:16:19;;;;;;;23.92;7.47;;;;;;;8.82;100.00;-19751.41;1749385;80;21041;-66
2021/12/13 07:18:59;;;;;;;24.55;7.87;;;;;;;8.83;100.00;-19916.73;1746802;80;21123;-65
2021/12/13 07:21:41;;;;;;;24.70;8.13;;;;;;;8.85;100.00;-19917.12;1734612;80;21095;-66
2021/12/13 07:24:13;;;;;;;27.55;7.72;;;;;;;8.86;100.00;-20082.57;1749900;80;21047;-66
2021/12/13 07:26:56;;;;;;;27.52;7.70;;;;;;;8.87;100.00;-20082.84;1738337;80;21631;-66
2021/12/13 07:29:49;;;;;;;33.33;8.50;;;;;;;8.90;100.00;-20083.48;1710683;82;21312;-66
2021/12/13 07:32:32;;;;;;;33.15;9.93;;;;;;;8.92;100.00;-20083.87;1739143;80;21056;-71
2021/12/13 07:35:13;;;;;;;28.27;8.88;;;;;;;8.96;100.00;-20250.00;1745249;80;21136;-71
2021/12/13 07:38:01;;;;;;;28.40;8.50;;;;;;;8.97;100.00;-20415.47;1745851;80;21074;-69
2021/12/13 07:41:04;;;;;;;34.00;8.15;;;;;;;9.01;100.00;-20581.62;1741601;80;21542;-70
2021/12/13 07:43:38;;;;;;;32.65;8.30;;;;;;;9.02;100.00;-20416.66;1748822;80;21099;-70
2021/12/13 07:46:20;;;;;;;35.25;8.80;;;;;;;9.05;100.00;-20582.55;1721487;80;21089;-71
2021/12/13 07:48:52;;;;;;;25.75;8.23;;;;;;;9.07;100.00;-20583.09;1746707;80;22213;-69
2021/12/13 07:51:27;;;;;;;43.02;8.53;;;;;;;9.07;100.00;-20583.09;1739698;80;21008;-70
2021/12/13 07:54:02;;;;;;;33.40;8.83;;;;;;;9.07;100.00;-20417.99;1739870;80;23092;-70
2021/12/13 07:56:38;;;;;;;43.35;7.97;;;;;;;9.06;100.00;-20417.72;1740222;80;21098;-70
2021/12/13 07:59:25;;;;;;;;;;;;;;;9.07;100.00;-20417.99;1742955;80;21112;-70
2021/12/13 08:02:04;;;;;;;29.72;8.48;;;;;;;9.09;100.00;-20418.52;1746046;80;20564;-69
2021/12/13 08:04:51;;;;;;;28.85;8.73;;;;;;;9.11;100.00;-20419.04;1744671;80;20996;-70
2021/12/13 08:07:30;;;;;;;40.85;9.15;;;;;;;9.10;100.00;-20418.78;1739430;80;22365;-69
2021/12/13 08:10:13;;;;;;;35.28;8.63;;;;;;;9.10;100.00;-20418.78;1741952;80;21036;-70
2021/12/13 08:12:44;;;;;;;40.48;9.03;;;;;;;9.07;100.00;-20252.88;1745868;80;21050;-71
2021/12/13 08:15:28;;;;;;;35.40;8.40;;;;;;;9.05;100.00;-20087.24;1736478;80;21125;-71
2021/12/13 08:18:02;;;;;;;;;;;;;;;9.05;100.00;-20087.11;1745728;80;21111;-70
2021/12/13 08:20:38;;;;;;;33.20;9.48;;;;;;;9.05;100.00;-20087.11;1738572;80;21131;-70
2021/12/13 08:23:19;;;;;;;43.80;11.70;;;;;;;9.02;100.00;-19921.48;1744921;80;21126;-69
2021/12/13 08:25:49;;;;;;;44.70;12.78;;;;;;;9.00;100.00;-19755.73;1717412;80;21058;-70
2021/12/13 08:28:19;;;;;;;32.80;11.70;;;;;;;8.98;100.00;-19755.22;1734422;80;21044;-69
2021/12/13 08:30:51;;;;;;;44.55;11.65;;;;;;;8.95;100.00;-19589.34;1743573;80;21100;-71
2021/12/13 08:33:41;;;;;;;34.50;10.82;;;;;;;8.91;100.00;-19423.36;1737839;80;21488;-71
2021/12/13 08:36:15;;;;;;;40.50;11.40;;;;;;;8.91;100.00;-19258.11;1735134;80;21419;-69
2021/12/13 08:39:18;;;;;;;42.10;12.43;;;;;;;8.87;100.00;-19257.26;1739463;80;21541;-69
2021/12/13 08:41:56;;;;;;;46.35;12.20;;;;;;;8.85;100.00;-19091.78;1734359;80;21147;-68
2021/12/13 08:44:30;;;;;;;46.45;12.25;;;;;;;8.80;100.00;-18925.46;1701339;82;21398;-69
2021/12/13 08:47:03;;;;;;;43.85;11.25;;;;;;;8.78;100.00;-18759.75;1737466;80;21846;-69
2021/12/13 08:49:42;;;;;;;41.37;11.88;;;;;;;8.76;100.00;-18759.27;1699167;82;21138;-69
2021/12/13 08:52:23;;;;;;;55.17;13.10;;;;;;;8.74;100.00;-18759.04;1664714;84;21124;-69
2021/12/13 08:55:04;;;;;;;54.10;13.05;;;;;;;8.72;100.00;-18758.44;1673243;84;21079;-70
2021/12/13 08:57:52;;;;;;;56.60;14.25;;;;;;;8.71;100.00;-18758.20;1672407;84;21550;-70
2021/12/13 09:00:47;;;;;;;44.00;12.40;;;;;;;8.70;100.00;-18757.96;1699201;82;21023;-71
2021/12/13 09:03:47;;;;;;;54.27;12.88;;;;;;;8.69;100.00;-18757.85;1739018;80;21063;-69
2021/12/13 09:06:22;;;;;;;42.27;11.43;;;;;;;8.69;100.00;-18922.81;1739075;80;21080;-68
2021/12/13 09:09:04;;;;;;;43.70;13.25;;;;;;;8.69;100.00;-18922.93;1737414;80;21050;-68
2021/12/13 09:11:57;;;;;;;50.65;14.90;;;;;;;8.67;100.00;-18922.45;1745909;80;21053;-70
2021/12/13 09:14:42;;;;;;;76.65;18.42;;;;;;;8.64;100.00;-18756.66;1741977;80;21199;-70
2021/12/13 09:17:25;;;;;;;63.10;16.32;;;;;;;8.59;100.00;-18425.44;1740359;80;21092;-70
2021/12/13 09:20:03;;;;;;;53.20;17.20;;;;;;;8.58;100.00;-18260.01;1735538;80;21095;-70
2021/12/13 09:22:39;;;;;;;65.08;16.32;;;;;;;8.57;100.00;-18259.90;1733621;80;21875;-71
2021/12/13 09:25:12;;;;;;;72.70;20.43;;;;;;;8.56;100.00;-18259.67;1740678;80;22096;-68
2021/12/13 09:27:46;;;;;;;63.30;17.17;;;;;;;8.56;100.00;-18259.67;1745057;80;21625;-68
2021/12/13 09:30:52;;;;;;;52.30;16.60;;;;;;;8.51;100.00;-17928.37;1737345;80;21314;-68
2021/12/13 09:33:28;;;;;;;;;;;;;;;8.49;100.00;-17762.72;1734441;80;21080;-70
2021/12/13 09:36:06;;;;;;;64.03;18.70;;;;;;;8.48;100.00;-17762.61;1737332;80;20182;-69
2021/12/13 09:39:04;;;;;;;57.53;16.02;;;;;;;8.45;100.00;-17596.86;1732768;80;21122;-70
2021/12/13 09:41:47;;;;;;;68.37;16.62;;;;;;;8.44;100.00;-17596.64;1739536;80;21115;-66
2021/12/13 09:44:20;;;;;;;63.85;19.00;;;;;;;8.42;100.00;-17596.20;1741084;80;21086;-64
2021/12/13 09:47:04;;;;;;;54.03;17.48;;;;;;;8.42;100.00;-17596.20;1741816;80;21841;-64
2021/12/13 09:49:49;;;;;;;44.85;15.20;;;;;;;8.39;100.00;-17430.48;1743152;80;21100;-66
2021/12/13 09:52:37;;;;;;;60.52;16.15;;;;;;;8.35;100.00;-17099.46;1740735;80;21054;-67
2021/12/13 09:55:15;;;;;;;39.48;14.83;;;;;;;8.30;100.00;-16768.46;1737295;80;21560;-65
2021/12/13 09:57:49;;;;;;;44.05;13.90;;;;;;;8.26;100.00;-16272.36;1738389;80;21087;-62
2021/12/13 10:00:27;;;;;;;41.90;13.78;;;;;;;8.20;100.00;-15610.76;1743988;80;21414;-63
2021/12/13 10:02:59;;;;;;;44.38;13.50;;;;;;;8.14;100.00;-14949.15;1743431;80;21026;-65
2021/12/13 10:05:37;;;;;;;61.48;14.50;;;;;;;8.08;100.00;-14452.69;1740937;80;21049;-63
2021/12/13 10:08:21;;;;;;;59.03;15.20;;;;;;;8.08;100.00;-14617.84;1735810;80;21769;-62
2021/12/13 10:11:00;;;;;;;40.40;14.28;;;;;;;8.07;100.00;-14947.92;1751826;80;21012;-69
2021/12/13 10:13:31;;;;;;;45.95;14.40;;;;;;;8.01;100.00;-14451.68;1745152;80;21099;-69
2021/12/13 10:16:07;;;;;;;59.80;15.95;;;;;;;7.98;100.00;-13955.70;1734843;80;20969;-68
2021/12/13 10:18:37;;;;;;;38.55;13.45;;;;;;;7.94;100.00;-13790.00;1739245;80;20980;-68
2021/12/13 10:21:14;;;;;;;48.15;14.28;;;;;;;7.91;100.00;-13789.53;1742645;80;21895;-68
2021/12/13 10:23:47;;;;;;;49.60;15.60;;;;;;;7.90;100.00;-13789.37;1735841;80;21083;-68
2021/12/13 10:26:15;;;;;;;39.50;13.40;;;;;;;7.88;100.00;-13789.05;1747414;79;21178;-68
2021/12/13 10:28:54;;;;;;;36.85;11.73;;;;;;;7.88;100.00;-13954.18;1726011;81;21640;-69
2021/12/13 10:31:29;;;;;;;32.90;13.53;;;;;;;7.86;100.00;-13623.61;1724751;81;21065;-68
2021/12/13 10:33:57;;;;;;;37.83;12.78;;;;;;;7.79;100.00;-12631.70;1726297;81;21781;-69
2021/12/13 10:36:27;;;;;;;30.48;11.53;;;;;;;7.72;100.00;-11805.03;1728879;81;21756;-63
2021/12/13 10:38:55;;;;;;;29.95;12.13;;;;;;;7.67;100.00;-11308.84;1721560;81;21127;-64
2021/12/13 10:41:35;;;;;;;37.88;11.75;;;;;;;7.66;100.00;-11308.73;1711467;82;21015;-69
2021/12/13 10:44:06;;;;;;;31.17;11.75;;;;;;;7.63;100.00;-10977.93;1725128;81;21513;-66
2021/12/13 10:46:37;;;;;;;25.82;11.80;;;;;;;7.57;100.00;-10151.25;1721120;81;21750;-57
2021/12/13 10:49:09;;;;;;;31.25;11.45;;;;;;;7.52;100.00;-9489.82;1690180;83;21060;-54
2021/12/13 10:51:39;;;;;;;24.55;11.38;;;;;;;7.47;100.00;-8828.41;1733044;81;21306;-54
2021/12/13 10:54:16;;;;;;;25.23;10.35;;;;;;;7.39;100.00;-7836.14;1723687;81;21075;-57
2021/12/13 10:56:49;;;;;;;23.02;10.68;;;;;;;7.35;100.00;-7505.33;1746085;80;21087;-57
2021/12/13 10:59:20;;;;;;;22.17;9.63;;;;;;;7.31;100.00;-7174.50;1753379;80;21546;-55
2021/12/13 11:01:51;;;;;;;25.50;9.80;;;;;;;7.31;100.00;-7339.81;1723288;81;21166;-54
2021/12/13 11:04:23;;;;;;;26.60;9.75;;;;;;;7.29;100.00;-7339.73;1698934;83;20914;-56
2021/12/13 11:06:49;;;;;;;16.82;7.90;;;;;;;7.29;100.00;-7505.01;1704475;82;21119;-57
2021/12/13 11:09:20;;;;;;;15.68;7.50;;;;;;;7.31;100.00;-7339.84;1744627;80;21101;-57
2021/12/13 11:11:51;;;;;;;15.88;7.87;;;;;;;7.33;100.00;-7505.22;1741248;80;21828;-57
2021/12/13 11:14:20;;;;;;;17.35;7.87;;;;;;;7.35;100.00;-6844.00;1748584;80;21461;-54
2021/12/13 11:16:53;;;;;;;17.48;7.62;;;;;;;7.37;100.00;-6513.39;1745096;80;21103;-54
2021/12/13 11:19:22;;;;;;;15.25;7.97;;;;;;;7.41;100.00;-6844.28;1718256;80;21090;-54
2021/12/13 11:21:53;;;;;;;16.73;7.25;;;;;;;7.47;100.00;-7175.23;1743376;80;21537;-54
2021/12/13 11:24:24;;;;;;;17.52;8.00;;;;;;;7.52;100.00;-7340.83;1741353;80;22199;-55
2021/12/13 11:26:56;;;;;;;15.00;6.78;;;;;;;7.55;100.00;-7340.99;1739241;80;21072;-55
2021/12/13 11:29:23;;;;;;;19.90;7.47;;;;;;;7.59;100.00;-7175.80;1737282;80;21637;-56
2021/12/13 11:32:31;;;;;;;18.10;8.18;;;;;;;7.59;100.00;-6514.20;1703973;80;21497;-54
2021/12/13 11:35:10;;;;;;;22.52;9.13;;;;;;;7.58;100.00;-5190.53;1732128;80;21088;-54
2021/12/13 11:38:13;;;;;;;19.90;9.08;;;;;;;7.57;100.00;-4197.45;1730492;80;22260;-54
2021/12/13 11:41:24;;;;;;;22.62;10.30;;;;;;;7.57;100.00;-3535.24;1731294;80;21089;-55
2021/12/13 11:44:29;;;;;;;18.82;10.65;;;;;;;7.58;100.00;-3204.07;1692715;80;21389;-54
2021/12/13 11:47:55;;;;;;;25.40;11.10;;;;;;;7.58;100.00;-2210.38;1734691;80;21060;-54
2021/12/13 11:51:02;;;;;;;21.42;10.43;;;;;;;7.56;100.00;-222.28;1737903;80;21012;-55
2021/12/13 11:54:13;;;;;;;18.32;9.93;;;;;;;7.51;100.00;2098.33;1662058;84;22634;-54
2021/12/13 11:57:06;;;;;;;22.32;10.82;;;;;;;7.48;100.00;4420.38;1707561;82;21812;-55
2021/12/13 12:00:07;;;;;;;22.00;11.18;;;;;;;7.42;100.00;5415.41;1704248;82;21054;-54
2021/12/13 12:03:13;;;;;;;22.75;11.20;;;;;;;7.42;100.00;5415.41;1732206;80;21046;-54
2021/12/13 12:06:25;;;;;;;22.02;10.68;;;;;;;7.40;100.00;5746.98;1738898;80;21071;-55
2021/12/13 12:09:37;;;;;;;14.53;8.40;;;;;;;7.40;100.00;6244.99;1728807;80;22521;-54
2021/12/13 12:12:38;;;;;;;15.10;8.35;;;;;;;7.36;100.00;7738.79;1731203;80;21060;-54
2021/12/13 12:15:06;;;;;;;13.62;7.25;;;;;;;7.27;100.00;10395.01;1731189;80;21362;-54
2021/12/13 12:17:34;;;;;;;15.80;7.25;;;;;;;7.22;100.00;10892.37;1732562;80;21213;-54
2021/12/13 12:20:01;;;;;;;19.82;8.10;;;;;;;7.20;100.00;11556.73;1738245;80;21064;-54